Terminal Aerodrome Forecast
Issued by NWS

Home | Current Version | Previous Version | Text Only | Print | Product List | Glossary On
Versions: 1 2 3 4 5 6 7 8 9 10 11 12 13 14 15 16
000
FTUS44 KBMX 291737
TAFMGM
TAF
KMGM 291737Z 2918/3018 32009KT 6SM SHRA VCTS BKN050CB
      TEMPO 2918/2921 VRB12G25KT 3SM TSRA
     FM300200 30003KT P6SM SCT040 SCT100 SCT200
      TEMPO 3011/3012 4SM BR=

USA.gov is the U.S. government's official web portal to all federal, state and local government web resources and services.